Time,TemperatureF,DewpointF,PressureIn,WindDirection,WindDirectionDegrees,WindSpeedMPH,WindSpeedGustMPH,Humidity,HourlyPrecipIn,Conditions,Clouds,dailyrainin,SoftwareType,DateUTC
2015-04-28 00:02:00,42.0,37.8,30.10,East,90,0.0,1.0,85,0.00,,---,0.00,VWS V14.01,2015-04-28 04:02:00,
2015-04-28 00:07:00,41.0,36.8,30.10,East,90,0.0,2.0,85,0.00,,---,0.00,VWS V14.01,2015-04-28 04:07:00,
2015-04-28 00:12:00,41.0,36.8,30.11,East,90,0.0,0.0,85,0.00,,---,0.00,VWS V14.01,2015-04-28 04:12:00,
2015-04-28 00:17:00,40.0,35.9,30.11,East,90,0.0,1.0,85,0.00,,---,0.00,VWS V14.01,2015-04-28 04:17:00,
2015-04-28 00:22:00,40.0,35.9,30.11,East,90,0.0,0.0,85,0.00,,---,0.00,VWS V14.01,2015-04-28 04:22:00,
2015-04-28 00:27:00,39.0,34.6,30.11,East,90,0.0,0.0,84,0.00,,---,0.00,VWS V14.01,2015-04-28 04:27:00,
2015-04-28 00:32:00,39.0,34.3,30.11,East,90,0.0,0.0,83,0.00,,---,0.00,VWS V14.01,2015-04-28 04:32:00,
2015-04-28 00:37:00,39.0,33.4,30.11,East,90,0.0,0.0,80,0.00,,---,0.00,VWS V14.01,2015-04-28 04:37:00,
2015-04-28 00:42:00,38.0,32.4,30.11,East,90,0.0,0.0,80,0.00,,---,0.00,VWS V14.01,2015-04-28 04:42:00,
2015-04-28 00:47:00,38.0,32.7,30.11,East,90,0.0,0.0,81,0.00,,---,0.00,VWS V14.01,2015-04-28 04:47:00,
2015-04-28 00:52:00,38.0,31.1,30.11,East,90,0.0,1.0,76,0.00,,---,0.00,VWS V14.01,2015-04-28 04:52:00,
2015-04-28 00:57:00,38.0,29.5,30.11,East,90,0.0,4.0,71,0.00,,---,0.00,VWS V14.01,2015-04-28 04:57:00,
2015-04-28 01:02:00,38.0,29.5,30.12,ENE,67,3.0,3.0,71,0.00,,---,0.00,VWS V14.01,2015-04-28 05:02:00,
2015-04-28 01:07:00,39.0,31.1,30.12,NE,45,0.0,6.0,73,0.00,,---,0.00,VWS V14.01,2015-04-28 05:07:00,
2015-04-28 01:12:00,39.0,31.8,30.12,NE,45,0.0,2.0,75,0.00,,---,0.00,VWS V14.01,2015-04-28 05:12:00,
2015-04-28 01:17:00,38.0,30.8,30.12,ENE,67,0.0,4.0,75,0.00,,---,0.00,VWS V14.01,2015-04-28 05:17:00,
2015-04-28 01:22:00,38.0,31.1,30.12,ENE,67,0.0,3.0,76,0.00,,---,0.00,VWS V14.01,2015-04-28 05:22:00,
2015-04-28 01:27:00,38.0,31.1,30.12,East,90,0.0,2.0,76,0.00,,---,0.00,VWS V14.01,2015-04-28 05:27:00,
2015-04-28 01:32:00,38.0,31.1,30.12,East,90,0.0,2.0,76,0.00,,---,0.00,VWS V14.01,2015-04-28 05:32:00,
2015-04-28 01:37:00,38.0,31.4,30.12,East,90,0.0,0.0,77,0.00,,---,0.00,VWS V14.01,2015-04-28 05:37:00,
2015-04-28 01:42:00,38.0,31.8,30.12,East,90,0.0,0.0,78,0.00,,---,0.00,VWS V14.01,2015-04-28 05:42:00,
2015-04-28 01:47:00,37.0,31.1,30.12,East,90,0.0,1.0,79,0.00,,---,0.00,VWS V14.01,2015-04-28 05:47:00,
2015-04-28 01:52:00,37.0,31.4,30.11,East,90,0.0,0.0,80,0.00,,---,0.00,VWS V14.01,2015-04-28 05:52:00,
2015-04-28 01:57:00,37.0,31.1,30.11,East,90,0.0,0.0,79,0.00,,---,0.00,VWS V14.01,2015-04-28 05:57:00,
2015-04-28 02:02:00,37.0,31.1,30.12,East,90,0.0,0.0,79,0.00,,---,0.00,VWS V14.01,2015-04-28 06:02:00,
2015-04-28 02:07:00,36.0,30.1,30.12,East,90,0.0,0.0,79,0.00,,---,0.00,VWS V14.01,2015-04-28 06:07:00,
2015-04-28 02:12:00,36.0,30.1,30.11,East,90,0.0,0.0,79,0.00,,---,0.00,VWS V14.01,2015-04-28 06:12:00,
2015-04-28 02:17:00,36.0,30.1,30.11,East,90,0.0,0.0,79,0.00,,---,0.00,VWS V14.01,2015-04-28 06:17:00,
2015-04-28 02:22:00,35.0,29.5,30.11,East,90,0.0,0.0,80,0.00,,---,0.00,VWS V14.01,2015-04-28 06:22:00,
2015-04-28 02:27:00,35.0,28.9,30.11,East,90,0.0,0.0,78,0.00,,---,0.00,VWS V14.01,2015-04-28 06:27:00,
2015-04-28 02:32:00,36.0,27.9,30.11,East,90,0.0,0.0,72,0.00,,---,0.00,VWS V14.01,2015-04-28 06:32:00,
2015-04-28 02:37:00,36.0,27.5,30.11,East,90,0.0,0.0,71,0.00,,---,0.00,VWS V14.01,2015-04-28 06:37:00,
2015-04-28 02:42:00,36.0,27.5,30.11,East,90,0.0,0.0,71,0.00,,---,0.00,VWS V14.01,2015-04-28 06:42:00,
2015-04-28 02:47:00,36.0,27.9,30.11,East,90,0.0,0.0,72,0.00,,---,0.00,VWS V14.01,2015-04-28 06:47:00,
2015-04-28 02:52:00,35.0,27.2,30.12,East,90,0.0,0.0,73,0.00,,---,0.00,VWS V14.01,2015-04-28 06:52:00,
2015-04-28 02:57:00,35.0,26.9,30.12,East,90,0.0,0.0,72,0.00,,---,0.00,VWS V14.01,2015-04-28 06:57:00,
2015-04-28 03:02:00,36.0,26.8,30.11,East,90,0.0,0.0,69,0.00,,---,0.00,VWS V14.01,2015-04-28 07:02:00,
2015-04-28 03:07:00,36.0,26.8,30.11,East,90,0.0,0.0,69,0.00,,---,0.00,VWS V14.01,2015-04-28 07:07:00,
2015-04-28 03:12:00,36.0,27.2,30.12,East,90,0.0,0.0,70,0.00,,---,0.00,VWS V14.01,2015-04-28 07:12:00,
2015-04-28 03:17:00,36.0,27.2,30.12,East,90,0.0,0.0,70,0.00,,---,0.00,VWS V14.01,2015-04-28 07:17:00,
2015-04-28 03:22:00,36.0,27.5,30.11,East,90,0.0,0.0,71,0.00,,---,0.00,VWS V14.01,2015-04-28 07:22:00,
2015-04-28 03:27:00,36.0,27.5,30.11,East,90,0.0,0.0,71,0.00,,---,0.00,VWS V14.01,2015-04-28 07:27:00,
2015-04-28 03:32:00,35.0,26.9,30.12,East,90,0.0,0.0,72,0.00,,---,0.00,VWS V14.01,2015-04-28 07:32:00,
2015-04-28 03:37:00,35.0,27.2,30.12,East,90,0.0,0.0,73,0.00,,---,0.00,VWS V14.01,2015-04-28 07:37:00,
2015-04-28 03:42:00,34.0,25.6,30.11,East,90,0.0,0.0,71,0.00,,---,0.00,VWS V14.01,2015-04-28 07:42:00,
2015-04-28 03:47:00,34.0,24.2,30.11,East,90,0.0,0.0,67,0.00,,---,0.00,VWS V14.01,2015-04-28 07:47:00,
2015-04-28 03:52:00,35.0,24.8,30.11,East,90,0.0,0.0,66,0.00,,---,0.00,VWS V14.01,2015-04-28 07:52:00,
2015-04-28 03:57:00,35.0,24.8,30.11,East,90,0.0,0.0,66,0.00,,---,0.00,VWS V14.01,2015-04-28 07:57:00,
2015-04-28 04:02:00,35.0,24.8,30.12,East,90,0.0,0.0,66,0.00,,---,0.00,VWS V14.01,2015-04-28 08:02:00,
2015-04-28 04:07:00,35.0,24.8,30.12,East,90,0.0,0.0,66,0.00,,---,0.00,VWS V14.01,2015-04-28 08:07:00,
2015-04-28 04:12:00,35.0,24.8,30.12,East,90,0.0,0.0,66,0.00,,---,0.00,VWS V14.01,2015-04-28 08:12:00,
2015-04-28 04:17:00,35.0,24.8,30.12,East,90,0.0,0.0,66,0.00,,---,0.00,VWS V14.01,2015-04-28 08:17:00,
2015-04-28 04:22:00,34.0,23.9,30.12,East,90,0.0,0.0,66,0.00,,---,0.00,VWS V14.01,2015-04-28 08:22:00,
2015-04-28 04:27:00,34.0,23.9,30.12,East,90,0.0,0.0,66,0.00,,---,0.00,VWS V14.01,2015-04-28 08:27:00,
2015-04-28 04:32:00,34.0,23.9,30.13,East,90,0.0,0.0,66,0.00,,---,0.00,VWS V14.01,2015-04-28 08:32:00,
2015-04-28 04:37:00,34.0,23.9,30.13,East,90,0.0,0.0,66,0.00,,---,0.00,VWS V14.01,2015-04-28 08:37:00,
2015-04-28 04:42:00,35.0,24.8,30.12,East,90,0.0,0.0,66,0.00,,---,0.00,VWS V14.01,2015-04-28 08:42:00,
2015-04-28 04:47:00,35.0,24.4,30.12,East,90,0.0,0.0,65,0.00,,---,0.00,VWS V14.01,2015-04-28 08:47:00,
2015-04-28 04:52:00,34.0,23.5,30.12,East,90,0.0,0.0,65,0.00,,---,0.00,VWS V14.01,2015-04-28 08:52:00,
2015-04-28 04:57:00,34.0,23.5,30.12,East,90,0.0,0.0,65,0.00,,---,0.00,VWS V14.01,2015-04-28 08:57:00,
2015-04-28 05:02:00,34.0,23.9,30.13,East,90,0.0,0.0,66,0.00,,---,0.00,VWS V14.01,2015-04-28 09:02:00,
2015-04-28 05:07:00,34.0,23.9,30.13,East,90,0.0,0.0,66,0.00,,---,0.00,VWS V14.01,2015-04-28 09:07:00,
2015-04-28 05:12:00,34.0,23.5,30.13,East,90,0.0,0.0,65,0.00,,---,0.00,VWS V14.01,2015-04-28 09:12:00,
2015-04-28 05:17:00,34.0,23.5,30.13,East,90,0.0,0.0,65,0.00,,---,0.00,VWS V14.01,2015-04-28 09:17:00,
2015-04-28 05:22:00,33.0,22.9,30.13,East,90,0.0,0.0,66,0.00,,---,0.00,VWS V14.01,2015-04-28 09:22:00,
2015-04-28 05:27:00,33.0,22.9,30.13,East,90,0.0,0.0,66,0.00,,---,0.00,VWS V14.01,2015-04-28 09:27:00,
2015-04-28 05:32:00,32.0,22.3,30.14,East,90,0.0,0.0,67,0.00,,---,0.00,VWS V14.01,2015-04-28 09:32:00,
2015-04-28 05:37:00,32.0,22.6,30.14,East,90,0.0,0.0,68,0.00,,---,0.00,VWS V14.01,2015-04-28 09:37:00,
2015-04-28 05:42:00,32.0,22.3,30.15,East,90,0.0,0.0,67,0.00,,---,0.00,VWS V14.01,2015-04-28 09:42:00,
2015-04-28 05:47:00,31.0,21.3,30.15,East,90,0.0,0.0,67,0.00,,---,0.00,VWS V14.01,2015-04-28 09:47:00,
2015-04-28 05:52:00,31.0,21.7,30.15,East,90,0.0,0.0,68,0.00,,---,0.00,VWS V14.01,2015-04-28 09:52:00,
2015-04-28 05:57:00,31.0,21.7,30.15,East,90,0.0,0.0,68,0.00,,---,0.00,VWS V14.01,2015-04-28 09:57:00,
2015-04-28 06:02:00,31.0,21.7,30.15,East,90,0.0,0.0,68,0.00,,---,0.00,VWS V14.01,2015-04-28 10:02:00,
2015-04-28 06:07:00,31.0,21.7,30.15,East,90,0.0,0.0,68,0.00,,---,0.00,VWS V14.01,2015-04-28 10:07:00,
2015-04-28 06:12:00,31.0,21.7,30.15,East,90,0.0,0.0,68,0.00,,---,0.00,VWS V14.01,2015-04-28 10:12:00,
2015-04-28 06:17:00,31.0,22.0,30.15,East,90,0.0,0.0,69,0.00,,---,0.00,VWS V14.01,2015-04-28 10:17:00,
2015-04-28 06:22:00,31.0,21.7,30.15,East,90,0.0,0.0,68,0.00,,---,0.00,VWS V14.01,2015-04-28 10:22:00,
2015-04-28 06:27:00,31.0,21.7,30.15,East,90,0.0,0.0,68,0.00,,---,0.00,VWS V14.01,2015-04-28 10:27:00,
2015-04-28 06:32:00,31.0,21.7,30.15,East,90,0.0,0.0,68,0.00,,---,0.00,VWS V14.01,2015-04-28 10:32:00,
2015-04-28 06:37:00,31.0,21.7,30.15,East,90,0.0,0.0,68,0.00,,---,0.00,VWS V14.01,2015-04-28 10:37:00,
2015-04-28 06:42:00,31.0,22.0,30.15,East,90,0.0,0.0,69,0.00,,---,0.00,VWS V14.01,2015-04-28 10:42:00,
2015-04-28 06:47:00,32.0,23.3,30.15,East,90,0.0,0.0,70,0.00,,---,0.00,VWS V14.01,2015-04-28 10:47:00,
2015-04-28 06:52:00,32.0,23.3,30.15,East,90,0.0,0.0,70,0.00,,---,0.00,VWS V14.01,2015-04-28 10:52:00,
2015-04-28 06:57:00,32.0,23.0,30.15,East,90,0.0,0.0,69,0.00,,---,0.00,VWS V14.01,2015-04-28 10:57:00,
2015-04-28 07:02:00,32.0,23.3,30.16,East,90,0.0,0.0,70,0.00,,---,0.00,VWS V14.01,2015-04-28 11:02:00,
2015-04-28 07:07:00,32.0,23.0,30.16,East,90,0.0,0.0,69,0.00,,---,0.00,VWS V14.01,2015-04-28 11:07:00,
2015-04-28 07:12:00,32.0,22.6,30.16,East,90,0.0,0.0,68,0.00,,---,0.00,VWS V14.01,2015-04-28 11:12:00,
2015-04-28 07:17:00,32.0,22.6,30.16,East,90,0.0,0.0,68,0.00,,---,0.00,VWS V14.01,2015-04-28 11:17:00,
2015-04-28 07:22:00,33.0,23.2,30.16,East,90,0.0,0.0,67,0.00,,---,0.00,VWS V14.01,2015-04-28 11:22:00,
2015-04-28 07:27:00,33.0,23.2,30.16,East,90,0.0,0.0,67,0.00,,---,0.00,VWS V14.01,2015-04-28 11:27:00,
2015-04-28 07:32:00,33.0,23.2,30.16,East,90,0.0,0.0,67,0.00,,---,0.00,VWS V14.01,2015-04-28 11:32:00,
2015-04-28 07:37:00,34.0,24.2,30.16,East,90,0.0,0.0,67,0.00,,---,0.00,VWS V14.01,2015-04-28 11:37:00,
2015-04-28 07:42:00,34.0,23.9,30.16,East,90,0.0,0.0,66,0.00,,---,0.00,VWS V14.01,2015-04-28 11:42:00,
2015-04-28 07:47:00,35.0,24.8,30.16,East,90,0.0,0.0,66,0.00,,---,0.00,VWS V14.01,2015-04-28 11:47:00,
2015-04-28 07:52:00,36.0,25.8,30.16,NE,45,2.0,4.0,66,0.00,,---,0.00,VWS V14.01,2015-04-28 11:52:00,
2015-04-28 07:57:00,37.0,26.7,30.16,NNE,22,3.0,5.0,66,0.00,,---,0.00,VWS V14.01,2015-04-28 11:57:00,
2015-04-28 08:02:00,38.0,27.3,30.16,NNE,22,3.0,4.0,65,0.00,,---,0.00,VWS V14.01,2015-04-28 12:02:00,
2015-04-28 08:07:00,38.0,26.9,30.16,NNE,22,4.0,5.0,64,0.00,,---,0.00,VWS V14.01,2015-04-28 12:07:00,
2015-04-28 08:12:00,39.0,27.5,30.15,North,360,5.0,7.0,63,0.00,,---,0.00,VWS V14.01,2015-04-28 12:12:00,
2015-04-28 08:17:00,40.0,27.6,30.15,NNE,22,4.0,7.0,61,0.00,,---,0.00,VWS V14.01,2015-04-28 12:17:00,
2015-04-28 08:22:00,41.0,28.6,30.15,NNE,22,4.0,5.0,61,0.00,,---,0.00,VWS V14.01,2015-04-28 12:22:00,
2015-04-28 08:27:00,41.0,28.2,30.15,North,360,6.0,6.0,60,0.00,,---,0.00,VWS V14.01,2015-04-28 12:27:00,
2015-04-28 08:32:00,42.0,27.9,30.15,NNE,22,4.0,7.0,57,0.00,,---,0.00,VWS V14.01,2015-04-28 12:32:00,
2015-04-28 08:37:00,43.0,29.2,30.15,North,360,3.0,5.0,58,0.00,,---,0.00,VWS V14.01,2015-04-28 12:37:00,
2015-04-28 08:42:00,44.0,28.0,30.15,NNE,22,4.0,8.0,53,0.00,,---,0.00,VWS V14.01,2015-04-28 12:42:00,
2015-04-28 08:47:00,44.0,28.0,30.15,North,360,5.0,6.0,53,0.00,,---,0.00,VWS V14.01,2015-04-28 12:47:00,
2015-04-28 08:52:00,45.0,28.9,30.14,NE,45,0.0,7.0,53,0.00,,---,0.00,VWS V14.01,2015-04-28 12:52:00,
2015-04-28 08:57:00,45.0,28.5,30.14,NNW,337,3.0,8.0,52,0.00,,---,0.00,VWS V14.01,2015-04-28 12:57:00,
2015-04-28 09:02:00,46.0,30.8,30.15,ENE,67,4.0,7.0,55,0.00,,---,0.00,VWS V14.01,2015-04-28 13:02:00,
2015-04-28 09:07:00,47.0,34.3,30.15,NE,45,3.0,5.0,61,0.00,,---,0.00,VWS V14.01,2015-04-28 13:07:00,
2015-04-28 09:12:00,49.0,34.9,30.14,ENE,67,2.0,4.0,58,0.00,,---,0.00,VWS V14.01,2015-04-28 13:12:00,
2015-04-28 09:17:00,49.0,41.4,30.14,NNE,22,0.0,6.0,75,0.00,,---,0.00,VWS V14.01,2015-04-28 13:17:00,
2015-04-28 09:22:00,50.0,37.5,30.14,NNE,22,5.0,7.0,62,0.00,,---,0.00,VWS V14.01,2015-04-28 13:22:00,
2015-04-28 09:27:00,50.0,40.2,30.14,NE,45,0.0,10.0,69,0.00,,---,0.00,VWS V14.01,2015-04-28 13:27:00,
2015-04-28 09:32:00,50.0,37.5,30.14,ESE,112,0.0,7.0,62,0.00,,---,0.00,VWS V14.01,2015-04-28 13:32:00,
2015-04-28 09:37:00,51.0,35.4,30.14,ENE,67,6.0,10.0,55,0.00,,---,0.00,VWS V14.01,2015-04-28 13:37:00,
2015-04-28 09:42:00,51.0,35.9,30.13,NE,45,3.0,6.0,56,0.00,,---,0.00,VWS V14.01,2015-04-28 13:42:00,
2015-04-28 09:47:00,52.0,38.1,30.13,NNE,22,1.0,7.0,59,0.00,,---,0.00,VWS V14.01,2015-04-28 13:47:00,
2015-04-28 09:52:00,52.0,35.9,30.13,East,90,3.0,7.0,54,0.00,,---,0.00,VWS V14.01,2015-04-28 13:52:00,
2015-04-28 09:57:00,51.0,35.9,30.13,East,90,3.0,7.0,56,0.00,,---,0.00,VWS V14.01,2015-04-28 13:57:00,
2015-04-28 10:02:00,52.0,35.9,30.13,North,360,7.0,7.0,54,0.00,,---,0.00,VWS V14.01,2015-04-28 14:02:00,
2015-04-28 10:07:00,53.0,38.6,30.13,ENE,67,3.0,8.0,58,0.00,,---,0.00,VWS V14.01,2015-04-28 14:07:00,
2015-04-28 10:12:00,52.0,35.4,30.13,NNE,22,6.0,11.0,53,0.00,,---,0.00,VWS V14.01,2015-04-28 14:12:00,
2015-04-28 10:17:00,52.0,36.3,30.13,North,360,8.0,11.0,55,0.00,,---,0.00,VWS V14.01,2015-04-28 14:17:00,
2015-04-28 10:22:00,52.0,37.7,30.13,North,360,3.0,10.0,58,0.00,,---,0.00,VWS V14.01,2015-04-28 14:22:00,
2015-04-28 10:27:00,52.0,38.1,30.13,North,360,4.0,10.0,59,0.00,,---,0.00,VWS V14.01,2015-04-28 14:27:00,
2015-04-28 10:32:00,53.0,37.3,30.13,NE,45,3.0,10.0,55,0.00,,---,0.00,VWS V14.01,2015-04-28 14:32:00,
2015-04-28 10:37:00,53.0,36.3,30.13,ENE,67,5.0,8.0,53,0.00,,---,0.00,VWS V14.01,2015-04-28 14:37:00,
2015-04-28 10:42:00,53.0,38.2,30.12,East,90,0.0,8.0,57,0.00,,---,0.00,VWS V14.01,2015-04-28 14:42:00,
2015-04-28 10:47:00,53.0,37.7,30.12,ENE,67,2.0,8.0,56,0.00,,---,0.00,VWS V14.01,2015-04-28 14:47:00,
2015-04-28 10:52:00,54.0,39.6,30.12,East,90,3.0,8.0,58,0.00,,---,0.00,VWS V14.01,2015-04-28 14:52:00,
2015-04-28 10:57:00,54.0,37.3,30.12,NNE,22,2.0,8.0,53,0.00,,---,0.00,VWS V14.01,2015-04-28 14:57:00,
2015-04-28 11:02:00,54.0,38.2,30.11,ESE,112,5.0,10.0,55,0.00,,---,0.00,VWS V14.01,2015-04-28 15:02:00,
2015-04-28 11:07:00,53.0,38.2,30.11,East,90,4.0,7.0,57,0.00,,---,0.00,VWS V14.01,2015-04-28 15:07:00,
2015-04-28 11:12:00,53.0,39.5,30.12,East,90,0.0,9.0,60,0.00,,---,0.00,VWS V14.01,2015-04-28 15:12:00,
2015-04-28 11:17:00,54.0,38.7,30.12,East,90,5.0,10.0,56,0.00,,---,0.00,VWS V14.01,2015-04-28 15:17:00,
2015-04-28 11:22:00,54.0,37.8,30.12,East,90,3.0,8.0,54,0.00,,---,0.00,VWS V14.01,2015-04-28 15:22:00,
2015-04-28 11:27:00,55.0,36.2,30.12,East,90,0.0,6.0,49,0.00,,---,0.00,VWS V14.01,2015-04-28 15:27:00,
2015-04-28 11:32:00,54.0,34.8,30.11,East,90,3.0,10.0,48,0.00,,---,0.00,VWS V14.01,2015-04-28 15:32:00,
2015-04-28 11:37:00,55.0,37.2,30.11,ENE,67,4.0,5.0,51,0.00,,---,0.00,VWS V14.01,2015-04-28 15:37:00,
2015-04-28 11:42:00,55.0,37.7,30.11,ENE,67,4.0,7.0,52,0.00,,---,0.00,VWS V14.01,2015-04-28 15:42:00,
2015-04-28 11:47:00,54.0,36.8,30.11,NE,45,4.0,10.0,52,0.00,,---,0.00,VWS V14.01,2015-04-28 15:47:00,
2015-04-28 11:52:00,55.0,36.2,30.11,North,360,4.0,8.0,49,0.00,,---,0.00,VWS V14.01,2015-04-28 15:52:00,
2015-04-28 11:57:00,56.0,38.2,30.11,ESE,112,0.0,6.0,51,0.00,,---,0.00,VWS V14.01,2015-04-28 15:57:00,
2015-04-28 12:02:00,55.0,36.7,30.11,ENE,67,1.0,9.0,50,0.00,,---,0.00,VWS V14.01,2015-04-28 16:02:00,
2015-04-28 12:07:00,55.0,37.2,30.11,East,90,7.0,11.0,51,0.00,,---,0.00,VWS V14.01,2015-04-28 16:07:00,
2015-04-28 12:12:00,55.0,36.2,30.10,NNW,337,6.0,9.0,49,0.00,,---,0.00,VWS V14.01,2015-04-28 16:12:00,
2015-04-28 12:17:00,55.0,36.2,30.10,North,360,6.0,9.0,49,0.00,,---,0.00,VWS V14.01,2015-04-28 16:17:00,
2015-04-28 12:22:00,55.0,35.7,30.10,North,360,9.0,11.0,48,0.00,,---,0.00,VWS V14.01,2015-04-28 16:22:00,
2015-04-28 12:27:00,55.0,38.2,30.10,East,90,1.0,10.0,53,0.00,,---,0.00,VWS V14.01,2015-04-28 16:27:00,
2015-04-28 12:32:00,56.0,37.1,30.10,ENE,67,0.0,7.0,49,0.00,,---,0.00,VWS V14.01,2015-04-28 16:32:00,
2015-04-28 12:37:00,56.0,36.6,30.10,ESE,112,2.0,8.0,48,0.00,,---,0.00,VWS V14.01,2015-04-28 16:37:00,
2015-04-28 12:42:00,57.0,35.9,30.09,NNE,22,6.0,10.0,45,0.00,,---,0.00,VWS V14.01,2015-04-28 16:42:00,
2015-04-28 12:47:00,57.0,37.0,30.09,NE,45,0.0,10.0,47,0.00,,---,0.00,VWS V14.01,2015-04-28 16:47:00,
2015-04-28 12:52:00,57.0,38.0,30.09,North,360,6.0,11.0,49,0.00,,---,0.00,VWS V14.01,2015-04-28 16:52:00,
2015-04-28 12:57:00,57.0,38.0,30.09,ENE,67,1.0,7.0,49,0.00,,---,0.00,VWS V14.01,2015-04-28 16:57:00,
2015-04-28 13:02:00,57.0,36.4,30.08,SE,135,4.0,6.0,46,0.00,,---,0.00,VWS V14.01,2015-04-28 17:02:00,
2015-04-28 13:07:00,55.0,35.2,30.08,ESE,112,9.0,9.0,47,0.00,,---,0.00,VWS V14.01,2015-04-28 17:07:00,
2015-04-28 13:12:00,57.0,39.6,30.07,ESE,112,4.0,10.0,52,0.00,,---,0.00,VWS V14.01,2015-04-28 17:12:00,
2015-04-28 13:17:00,56.0,35.5,30.07,ESE,112,5.0,10.0,46,0.00,,---,0.00,VWS V14.01,2015-04-28 17:17:00,
2015-04-28 13:22:00,56.0,37.1,30.07,North,360,4.0,8.0,49,0.00,,---,0.00,VWS V14.01,2015-04-28 17:22:00,
2015-04-28 13:27:00,57.0,38.0,30.07,NNE,22,1.0,12.0,49,0.00,,---,0.00,VWS V14.01,2015-04-28 17:27:00,
2015-04-28 13:32:00,58.0,35.7,30.07,NW,315,3.0,9.0,43,0.00,,---,0.00,VWS V14.01,2015-04-28 17:32:00,
2015-04-28 13:37:00,57.0,38.0,30.07,SE,135,3.0,8.0,49,0.00,,---,0.00,VWS V14.01,2015-04-28 17:37:00,
2015-04-28 13:42:00,58.0,41.0,30.06,ESE,112,0.0,9.0,53,0.00,,---,0.00,VWS V14.01,2015-04-28 17:42:00,
2015-04-28 13:47:00,58.0,35.7,30.06,East,90,4.0,10.0,43,0.00,,---,0.00,VWS V14.01,2015-04-28 17:47:00,
2015-04-28 13:52:00,58.0,37.4,30.06,ENE,67,1.0,13.0,46,0.00,,---,0.00,VWS V14.01,2015-04-28 17:52:00,
2015-04-28 13:57:00,59.0,39.4,30.06,NE,45,0.0,6.0,48,0.00,,---,0.00,VWS V14.01,2015-04-28 17:57:00,
2015-04-28 14:02:00,59.0,38.3,30.05,ENE,67,3.0,10.0,46,0.00,,---,0.00,VWS V14.01,2015-04-28 18:02:00,
2015-04-28 14:07:00,60.0,40.8,30.05,NE,45,1.0,7.0,49,0.00,,---,0.00,VWS V14.01,2015-04-28 18:07:00,
2015-04-28 14:12:00,60.0,39.7,30.05,SE,135,5.0,6.0,47,0.00,,---,0.00,VWS V14.01,2015-04-28 18:12:00,
2015-04-28 14:17:00,59.0,39.9,30.05,NNE,22,4.0,9.0,49,0.00,,---,0.00,VWS V14.01,2015-04-28 18:17:00,
2015-04-28 14:22:00,59.0,36.6,30.04,East,90,4.0,11.0,43,0.00,,---,0.00,VWS V14.01,2015-04-28 18:22:00,
2015-04-28 14:27:00,59.0,37.7,30.04,ESE,112,0.0,5.0,45,0.00,,---,0.00,VWS V14.01,2015-04-28 18:27:00,
2015-04-28 14:32:00,60.0,38.0,30.03,NNE,22,8.0,10.0,44,0.00,,---,0.00,VWS V14.01,2015-04-28 18:32:00,
2015-04-28 14:37:00,60.0,39.7,30.03,NNE,22,1.0,10.0,47,0.00,,---,0.00,VWS V14.01,2015-04-28 18:37:00,
2015-04-28 14:42:00,59.0,37.1,30.02,NNE,22,6.0,9.0,44,0.00,,---,0.00,VWS V14.01,2015-04-28 18:42:00,
2015-04-28 14:47:00,59.0,37.1,30.02,North,360,9.0,13.0,44,0.00,,---,0.00,VWS V14.01,2015-04-28 18:47:00,
2015-04-28 14:52:00,59.0,38.8,30.02,North,360,4.0,9.0,47,0.00,,---,0.00,VWS V14.01,2015-04-28 18:52:00,
2015-04-28 14:57:00,60.0,37.5,30.02,ENE,67,2.0,2.0,43,0.00,,---,0.00,VWS V14.01,2015-04-28 18:57:00,
2015-04-28 15:02:00,60.0,38.0,30.01,ESE,112,0.0,7.0,44,0.00,,---,0.00,VWS V14.01,2015-04-28 19:02:00,
2015-04-28 15:07:00,60.0,38.0,30.01,North,360,4.0,9.0,44,0.00,,---,0.00,VWS V14.01,2015-04-28 19:07:00,
2015-04-28 15:12:00,60.0,38.0,30.01,ESE,112,4.0,6.0,44,0.00,,---,0.00,VWS V14.01,2015-04-28 19:12:00,
2015-04-28 15:17:00,60.0,41.3,30.01,ENE,67,1.0,7.0,50,0.00,,---,0.00,VWS V14.01,2015-04-28 19:17:00,
2015-04-28 15:22:00,62.0,40.4,30.00,ENE,67,3.0,6.0,45,0.00,,---,0.00,VWS V14.01,2015-04-28 19:22:00,
2015-04-28 15:27:00,61.0,39.0,30.00,North,360,5.0,11.0,44,0.00,,---,0.00,VWS V14.01,2015-04-28 19:27:00,
2015-04-28 15:30:00,62.0,42.1,29.96,NNE,22,3.0,3.0,48,0.00,,---,0.00,VWS V14.01,2015-04-28 19:30:00,
2015-04-28 15:32:00,60.0,38.6,29.99,NNE,22,6.0,16.0,45,0.00,,---,0.00,VWS V14.01,2015-04-28 19:32:00,
2015-04-28 15:34:00,62.0,36.8,29.96,North,360,7.0,10.0,39,0.00,,---,0.00,VWS V14.01,2015-04-28 19:34:00,
2015-04-28 15:37:00,60.0,38.6,29.99,NNE,22,5.0,10.0,45,0.00,,---,0.00,VWS V14.01,2015-04-28 19:37:00,
2015-04-28 15:38:00,62.0,37.4,29.96,NNE,22,6.0,9.0,40,0.00,,---,0.00,VWS V14.01,2015-04-28 19:38:00,
2015-04-28 15:39:00,62.0,36.1,29.96,NNE,22,2.0,9.0,38,0.00,,---,0.00,VWS V14.01,2015-04-28 19:39:00,
2015-04-28 15:42:00,60.0,40.8,29.99,ENE,67,2.0,12.0,49,0.00,,---,0.00,VWS V14.01,2015-04-28 19:42:00,
2015-04-28 15:47:00,61.0,39.0,29.99,ENE,67,4.0,9.0,44,0.00,,---,0.00,VWS V14.01,2015-04-28 19:47:00,
2015-04-28 15:49:00,62.0,40.4,29.96,North,360,8.0,13.0,45,0.00,,---,0.00,VWS V14.01,2015-04-28 19:49:00,
2015-04-28 15:52:00,61.0,39.5,29.98,NE,45,3.0,10.0,45,0.00,,---,0.00,VWS V14.01,2015-04-28 19:52:00,
2015-04-28 15:53:00,61.0,37.2,29.96,West,270,1.0,6.0,41,0.00,,---,0.00,VWS V14.01,2015-04-28 19:53:00,
2015-04-28 15:55:00,61.0,37.8,29.96,NNE,22,1.0,1.0,42,0.00,,---,0.00,VWS V14.01,2015-04-28 19:55:00,
2015-04-28 15:56:00,61.0,37.8,29.96,NNW,337,0.0,3.0,42,0.00,,---,0.00,VWS V14.01,2015-04-28 19:56:00,
2015-04-28 15:57:00,62.0,38.7,29.98,NNE,22,5.0,9.0,42,0.00,,---,0.00,VWS V14.01,2015-04-28 19:57:00,
2015-04-28 15:58:00,62.0,38.7,29.96,NE,45,3.0,7.0,42,0.00,,---,0.00,VWS V14.01,2015-04-28 19:58:00,
2015-04-28 16:02:00,62.0,39.9,29.97,North,360,6.0,10.0,44,0.00,,---,0.00,VWS V14.01,2015-04-28 20:02:00,
2015-04-28 16:07:00,62.0,39.3,29.97,East,90,3.0,4.0,43,0.00,,---,0.00,VWS V14.01,2015-04-28 20:07:00,
2015-04-28 16:12:00,61.0,39.0,29.97,NNE,22,6.0,10.0,44,0.00,,---,0.00,VWS V14.01,2015-04-28 20:12:00,
2015-04-28 16:17:00,62.0,39.9,29.97,NNE,22,2.0,5.0,44,0.00,,---,0.00,VWS V14.01,2015-04-28 20:17:00,
2015-04-28 16:22:00,63.0,40.8,29.96,ESE,112,8.0,8.0,44,0.00,,---,0.00,VWS V14.01,2015-04-28 20:22:00,
2015-04-28 16:28:00,62.0,39.9,29.96,NE,45,0.0,5.0,44,0.00,,---,0.00,VWS V14.01,2015-04-28 20:28:00,
2015-04-28 16:33:00,62.0,38.7,29.96,NNW,337,5.0,7.0,42,0.00,,---,0.00,VWS V14.01,2015-04-28 20:33:00,
2015-04-28 16:38:00,62.0,39.3,29.96,ENE,67,0.0,5.0,43,0.00,,---,0.00,VWS V14.01,2015-04-28 20:38:00,
2015-04-28 16:43:00,61.0,39.0,29.96,NNE,22,5.0,7.0,44,0.00,,---,0.00,VWS V14.01,2015-04-28 20:43:00,
2015-04-28 16:48:00,62.0,37.4,29.96,North,360,2.0,5.0,40,0.00,,---,0.00,VWS V14.01,2015-04-28 20:48:00,
2015-04-28 16:53:00,61.0,37.8,29.96,North,360,4.0,4.0,42,0.00,,---,0.00,VWS V14.01,2015-04-28 20:53:00,